CheckWX is a tool to help pilots better visualize weather data.  It is not intended as a substitute for an official pre-flight weather briefing.

21:03:06 UTC

KHMZ METAR
Bedford County Airport
Bedford, Pennsylvania, USA
Current

8 mins ago

KHMZ 232055Z AUTO 27012G17KT 10SM BKN055 BKN075 27/16 A2997 RMK AO2 T02670159
Observed
May-23 @ 20:55 UTC
Wind
  • 270° at 12 KTS
  • Gusting to 17 KTS
Visibility
10 SM
Flight Rules
VFR
Cloud Levels
  • Broken at 5,500' AGL
  • Broken at 7,500' AGL
Temperature
27°C / 81°F
Dewpoint
16°C / 61°F
Heat Index
28°C / 82°F
Humidity
51%
Altimeter
29.97" Hg
Pressure
1014.92 hPa
Previous

28 mins ago

KHMZ 232035Z AUTO 27016G21KT 10SM SCT055 SCT075 27/15 A2997 RMK AO2 T02690151
Observed
May-23 @ 20:35 UTC
Wind
  • 270° at 16 KTS
  • Gusting to 21 KTS
Visibility
10 SM
Flight Rules
VFR
Cloud Levels
  • Scattered at 5,500' AGL
  • Scattered at 7,500' AGL
Temperature
27°C / 81°F
Dewpoint
15°C / 59°F
Heat Index
27°C / 81°F
Humidity
48%
Altimeter
29.97" Hg
Pressure
1014.92 hPa
Previous

2 hours ago

KHMZ 231915Z AUTO 21008KT 10SM SCT110 25/18 A3002 RMK AO2 T02510182
Observed
May-23 @ 19:15 UTC
Wind
  • 210° at 8 KTS
Visibility
10 SM
Flight Rules
VFR
Cloud Levels
  • Scattered at 11,000' AGL
Temperature
25°C / 77°F
Dewpoint
18°C / 64°F
Humidity
65%
Altimeter
30.02" Hg
Pressure
1016.62 hPa